UPSVAC Airport Information Service

Phoenix Sky Harbor International Airport

ICAO: KPHX Country: United States
Latitude: 33.4343 Longitude: -112.011
Latest Arrival : UPSJUMP (KLAS-KPHX) Latest Departure : UPSJUMP (KPHX-KSDF)


WX CaptureLIVE
Data provided by noaa.gov | Fetched at 13:40:39

METAR : KPHX 251251Z 14008KT 10SM FEW050 BKN075 BKN090 BKN160 08/04 A2983 RMK AO2 SLP095 T00830044 $

TAF : KPHX 251130Z 2512/2618 14009KT P6SM VCSH FEW040 OVC060 FM251700 16011KT P6SM -SHRA FEW030 OVC050 FM251900 19014G25KT P6SM SHRA FEW030 OVC050 FM252100 23015G28KT 3SM TSRA OVC025CB FM252300 25015G25KT P6SM VCSH FEW040 OVC050 FM260300 20010KT P6SM OVC060


Runway Data for KPHX
Data provided by openaviationdata.com

Runway ID Mag Var Hdg Length Elevation Surface ILS Freq ILS Id ILS Slope
07L 12 78° 10287 ft 1135 ft Asphalt 111.5 IPHX 3
07R 12 78° 7791 ft 1135 ft Concrete 110.75 IAHA 3
8 12 78° 11477 ft 1135 ft Concrete 111.75 ISYQ 3
25L 12 258° 7791 ft 1135 ft Concrete 110.75 IRJG 3
25R 12 258° 10287 ft 1135 ft Asphalt -- -- --
26 12 258° 11477 ft 1135 ft Concrete 111.75 ICWJ 3

Phoenix Sky Harbor International Airport, United States
Use only for reference purposes



Not for navigational purposes.